sensor_id;sensor_type;location;lat;lon;timestamp;pressure;altitude;pressure_sealevel;temperature;humidity
29461;BME280;16428;47.836;35.106;2023-04-05T00:01:08;100610.09;;;14.02;100.00
29461;BME280;16428;47.836;35.106;2023-04-05T00:03:39;100609.66;;;13.99;100.00
29461;BME280;16428;47.836;35.106;2023-04-05T00:06:07;100620.91;;;14.02;100.00
29461;BME280;16428;47.836;35.106;2023-04-05T00:08:35;100621.75;;;14.09;100.00
29461;BME280;16428;47.836;35.106;2023-04-05T00:11:03;100622.16;;;14.06;100.00
29461;BME280;16428;47.836;35.106;2023-04-05T00:13:30;100612.91;;;13.81;100.00
29461;BME280;16428;47.836;35.106;2023-04-05T00:15:58;100603.31;;;13.72;100.00
29461;BME280;16428;47.836;35.106;2023-04-05T00:18:27;100593.75;;;13.69;100.00
29461;BME280;16428;47.836;35.106;2023-04-05T00:21:00;100597.16;;;13.91;100.00
29461;BME280;16428;47.836;35.106;2023-04-05T00:23:28;100589.28;;;13.96;100.00
29461;BME280;16428;47.836;35.106;2023-04-05T00:25:55;100580.56;;;13.94;100.00
29461;BME280;16428;47.836;35.106;2023-04-05T00:28:23;100575.91;;;13.75;100.00
29461;BME280;16428;47.836;35.106;2023-04-05T00:30:51;100571.44;;;13.95;100.00
29461;BME280;16428;47.836;35.106;2023-04-05T00:33:19;100562.41;;;13.75;100.00
29461;BME280;16428;47.836;35.106;2023-04-05T00:35:47;100554.59;;;13.87;100.00
29461;BME280;16428;47.836;35.106;2023-04-05T00:38:15;100557.69;;;13.84;100.00
29461;BME280;16428;47.836;35.106;2023-04-05T00:40:43;100569.25;;;13.71;100.00
29461;BME280;16428;47.836;35.106;2023-04-05T00:43:11;100569.41;;;13.63;100.00
29461;BME280;16428;47.836;35.106;2023-04-05T00:45:38;100566.41;;;13.86;100.00
29461;BME280;16428;47.836;35.106;2023-04-05T00:48:07;100558.06;;;13.74;100.00
29461;BME280;16428;47.836;35.106;2023-04-05T00:50:35;100567.84;;;13.82;100.00
29461;BME280;16428;47.836;35.106;2023-04-05T00:53:04;100559.72;;;13.75;100.00
29461;BME280;16428;47.836;35.106;2023-04-05T00:55:32;100553.22;;;13.63;100.00
29461;BME280;16428;47.836;35.106;2023-04-05T00:58:00;100560.69;;;13.61;100.00
29461;BME280;16428;47.836;35.106;2023-04-05T01:00:28;100568.00;;;13.67;100.00
29461;BME280;16428;47.836;35.106;2023-04-05T01:02:59;100559.09;;;13.73;100.00
29461;BME280;16428;47.836;35.106;2023-04-05T01:05:41;100552.25;;;13.70;100.00
29461;BME280;16428;47.836;35.106;2023-04-05T01:08:17;100557.97;;;13.61;100.00
29461;BME280;16428;47.836;35.106;2023-04-05T01:10:54;100546.00;;;13.77;100.00
29461;BME280;16428;47.836;35.106;2023-04-05T01:13:24;100553.88;;;13.65;100.00
29461;BME280;16428;47.836;35.106;2023-04-05T01:15:52;100544.09;;;13.64;100.00
29461;BME280;16428;47.836;35.106;2023-04-05T01:18:20;100541.41;;;13.64;100.00
29461;BME280;16428;47.836;35.106;2023-04-05T01:20:52;100544.78;;;13.79;100.00
29461;BME280;16428;47.836;35.106;2023-04-05T01:23:51;100543.84;;;13.52;100.00
29461;BME280;16428;47.836;35.106;2023-04-05T01:26:45;100528.94;;;13.63;100.00
29461;BME280;16428;47.836;35.106;2023-04-05T01:29:35;100525.41;;;13.62;100.00
29461;BME280;16428;47.836;35.106;2023-04-05T01:34:49;100536.25;;;13.69;100.00
29461;BME280;16428;47.836;35.106;2023-04-05T01:37:19;100527.69;;;13.59;100.00
29461;BME280;16428;47.836;35.106;2023-04-05T01:39:50;100522.50;;;13.57;100.00
29461;BME280;16428;47.836;35.106;2023-04-05T01:42:22;100523.47;;;13.50;100.00
29461;BME280;16428;47.836;35.106;2023-04-05T01:44:55;100520.25;;;13.26;100.00
29461;BME280;16428;47.836;35.106;2023-04-05T01:47:22;100523.72;;;13.55;100.00
29461;BME280;16428;47.836;35.106;2023-04-05T01:49:50;100523.09;;;13.53;100.00
29461;BME280;16428;47.836;35.106;2023-04-05T01:52:17;100526.03;;;13.64;100.00
29461;BME280;16428;47.836;35.106;2023-04-05T01:54:45;100515.56;;;13.42;100.00
29461;BME280;16428;47.836;35.106;2023-04-05T01:57:12;100518.91;;;13.44;100.00
29461;BME280;16428;47.836;35.106;2023-04-05T01:59:39;100501.66;;;13.45;100.00
29461;BME280;16428;47.836;35.106;2023-04-05T02:02:07;100501.91;;;13.50;100.00
29461;BME280;16428;47.836;35.106;2023-04-05T02:04:35;100496.94;;;13.53;100.00
29461;BME280;16428;47.836;35.106;2023-04-05T02:07:03;100489.44;;;13.49;100.00
29461;BME280;16428;47.836;35.106;2023-04-05T02:09:31;100492.13;;;13.49;100.00
29461;BME280;16428;47.836;35.106;2023-04-05T02:11:59;100485.69;;;13.43;100.00
29461;BME280;16428;47.836;35.106;2023-04-05T02:14:34;100474.91;;;13.50;100.00
29461;BME280;16428;47.836;35.106;2023-04-05T02:17:02;100473.91;;;13.57;100.00
29461;BME280;16428;47.836;35.106;2023-04-05T02:19:30;100467.06;;;13.55;100.00
29461;BME280;16428;47.836;35.106;2023-04-05T02:22:03;100465.53;;;13.46;100.00
29461;BME280;16428;47.836;35.106;2023-04-05T02:24:31;100462.25;;;13.50;100.00
29461;BME280;16428;47.836;35.106;2023-04-05T02:26:58;100466.66;;;13.58;99.88
29461;BME280;16428;47.836;35.106;2023-04-05T02:29:26;100465.38;;;13.54;99.64
29461;BME280;16428;47.836;35.106;2023-04-05T02:31:54;100468.72;;;13.56;99.19
29461;BME280;16428;47.836;35.106;2023-04-05T02:34:22;100467.84;;;13.42;100.00
29461;BME280;16428;47.836;35.106;2023-04-05T02:36:50;100458.28;;;13.40;100.00
29461;BME280;16428;47.836;35.106;2023-04-05T02:39:18;100438.31;;;13.27;100.00
29461;BME280;16428;47.836;35.106;2023-04-05T02:41:46;100435.00;;;13.32;100.00
29461;BME280;16428;47.836;35.106;2023-04-05T02:44:14;100432.94;;;13.34;100.00
29461;BME280;16428;47.836;35.106;2023-04-05T02:46:41;100417.03;;;13.11;100.00
29461;BME280;16428;47.836;35.106;2023-04-05T02:49:09;100409.03;;;13.24;100.00
29461;BME280;16428;47.836;35.106;2023-04-05T02:51:36;100405.94;;;13.27;100.00
29461;BME280;16428;47.836;35.106;2023-04-05T02:54:04;100392.22;;;13.22;100.00
29461;BME280;16428;47.836;35.106;2023-04-05T02:56:31;100398.44;;;13.29;100.00
29461;BME280;16428;47.836;35.106;2023-04-05T02:58:59;100399.28;;;13.23;100.00
29461;BME280;16428;47.836;35.106;2023-04-05T03:01:27;100381.66;;;13.27;100.00
29461;BME280;16428;47.836;35.106;2023-04-05T03:04:02;100381.06;;;13.38;100.00
29461;BME280;16428;47.836;35.106;2023-04-05T03:06:30;100372.31;;;13.23;100.00
29461;BME280;16428;47.836;35.106;2023-04-05T03:08:57;100354.78;;;13.06;100.00
29461;BME280;16428;47.836;35.106;2023-04-05T03:11:25;100339.53;;;13.26;100.00
29461;BME280;16428;47.836;35.106;2023-04-05T03:13:53;100324.41;;;13.38;100.00
29461;BME280;16428;47.836;35.106;2023-04-05T03:16:21;100317.97;;;13.26;100.00
29461;BME280;16428;47.836;35.106;2023-04-05T03:18:48;100330.81;;;13.31;100.00
29461;BME280;16428;47.836;35.106;2023-04-05T03:21:23;100325.81;;;13.21;100.00
29461;BME280;16428;47.836;35.106;2023-04-05T03:23:50;100327.69;;;13.21;100.00
29461;BME280;16428;47.836;35.106;2023-04-05T03:26:18;100322.94;;;13.23;100.00
29461;BME280;16428;47.836;35.106;2023-04-05T03:28:46;100325.03;;;13.27;100.00
29461;BME280;16428;47.836;35.106;2023-04-05T03:31:13;100322.50;;;13.19;100.00
29461;BME280;16428;47.836;35.106;2023-04-05T03:33:41;100324.16;;;13.20;100.00
29461;BME280;16428;47.836;35.106;2023-04-05T03:36:08;100317.34;;;13.31;100.00
29461;BME280;16428;47.836;35.106;2023-04-05T03:38:36;100322.56;;;13.39;99.34
29461;BME280;16428;47.836;35.106;2023-04-05T03:41:11;100336.25;;;13.51;98.55
29461;BME280;16428;47.836;35.106;2023-04-05T03:43:38;100334.97;;;13.33;99.05
29461;BME280;16428;47.836;35.106;2023-04-05T03:46:06;100330.00;;;13.30;99.31
29461;BME280;16428;47.836;35.106;2023-04-05T03:48:37;100321.06;;;13.30;99.01
29461;BME280;16428;47.836;35.106;2023-04-05T03:51:05;100326.25;;;13.31;98.35
29461;BME280;16428;47.836;35.106;2023-04-05T03:53:34;100333.75;;;13.36;98.01
29461;BME280;16428;47.836;35.106;2023-04-05T03:56:01;100324.19;;;13.33;98.00
29461;BME280;16428;47.836;35.106;2023-04-05T03:58:29;100338.91;;;13.31;98.00
29461;BME280;16428;47.836;35.106;2023-04-05T04:00:57;100341.22;;;13.41;97.64
29461;BME280;16428;47.836;35.106;2023-04-05T04:03:24;100355.94;;;13.31;97.79
29461;BME280;16428;47.836;35.106;2023-04-05T04:05:52;100347.47;;;13.48;96.89
29461;BME280;16428;47.836;35.106;2023-04-05T04:08:20;100363.41;;;13.36;96.56
29461;BME280;16428;47.836;35.106;2023-04-05T04:10:48;100360.78;;;13.56;95.38
29461;BME280;16428;47.836;35.106;2023-04-05T04:13:18;100345.78;;;13.33;96.08
29461;BME280;16428;47.836;35.106;2023-04-05T04:15:46;100339.78;;;13.45;96.23
29461;BME280;16428;47.836;35.106;2023-04-05T04:18:13;100344.34;;;13.37;96.25
29461;BME280;16428;47.836;35.106;2023-04-05T04:20:44;100330.44;;;13.41;96.60
29461;BME280;16428;47.836;35.106;2023-04-05T04:23:12;100328.38;;;13.43;95.18
29461;BME280;16428;47.836;35.106;2023-04-05T04:25:40;100320.91;;;13.51;94.97
29461;BME280;16428;47.836;35.106;2023-04-05T04:28:12;100327.13;;;13.52;95.33
29461;BME280;16428;47.836;35.106;2023-04-05T04:30:45;100337.34;;;13.69;94.00
29461;BME280;16428;47.836;35.106;2023-04-05T04:33:13;100335.47;;;13.70;93.48
29461;BME280;16428;47.836;35.106;2023-04-05T04:35:40;100333.38;;;13.65;94.12
29461;BME280;16428;47.836;35.106;2023-04-05T04:38:11;100338.16;;;13.70;93.06
29461;BME280;16428;47.836;35.106;2023-04-05T04:40:47;100330.88;;;13.77;92.65
29461;BME280;16428;47.836;35.106;2023-04-05T04:43:20;100329.88;;;13.71;93.13
29461;BME280;16428;47.836;35.106;2023-04-05T04:45:54;100336.72;;;13.74;93.11
29461;BME280;16428;47.836;35.106;2023-04-05T04:48:22;100333.81;;;13.82;92.34
29461;BME280;16428;47.836;35.106;2023-04-05T04:50:51;100321.34;;;13.94;91.74
29461;BME280;16428;47.836;35.106;2023-04-05T04:53:20;100323.84;;;13.89;91.62
29461;BME280;16428;47.836;35.106;2023-04-05T04:55:58;100318.44;;;13.89;91.67
29461;BME280;16428;47.836;35.106;2023-04-05T04:58:26;100323.41;;;14.05;91.03
29461;BME280;16428;47.836;35.106;2023-04-05T05:00:53;100337.09;;;14.24;89.96
29461;BME280;16428;47.836;35.106;2023-04-05T05:03:24;100323.41;;;14.19;89.73
29461;BME280;16428;47.836;35.106;2023-04-05T05:05:52;100328.59;;;14.20;89.43
29461;BME280;16428;47.836;35.106;2023-04-05T05:08:19;100324.03;;;14.14;90.39
29461;BME280;16428;47.836;35.106;2023-04-05T05:10:51;100335.63;;;14.21;90.00
29461;BME280;16428;47.836;35.106;2023-04-05T05:13:21;100330.88;;;14.17;90.46
29461;BME280;16428;47.836;35.106;2023-04-05T05:15:48;100341.28;;;14.20;89.55
29461;BME280;16428;47.836;35.106;2023-04-05T05:18:16;100343.34;;;14.51;88.50
29461;BME280;16428;47.836;35.106;2023-04-05T05:20:43;100338.09;;;14.62;88.21
29461;BME280;16428;47.836;35.106;2023-04-05T05:23:11;100335.56;;;14.74;87.43
29461;BME280;16428;47.836;35.106;2023-04-05T05:25:38;100332.88;;;14.67;87.53
29461;BME280;16428;47.836;35.106;2023-04-05T05:28:06;100341.97;;;14.86;86.78
29461;BME280;16428;47.836;35.106;2023-04-05T05:30:37;100336.34;;;14.88;86.65
29461;BME280;16428;47.836;35.106;2023-04-05T05:33:07;100340.47;;;14.97;86.19
29461;BME280;16428;47.836;35.106;2023-04-05T05:35:34;100332.31;;;15.10;85.17
29461;BME280;16428;47.836;35.106;2023-04-05T05:38:04;100342.84;;;15.18;85.15
29461;BME280;16428;47.836;35.106;2023-04-05T05:40:36;100348.47;;;15.23;84.29
29461;BME280;16428;47.836;35.106;2023-04-05T05:43:03;100339.69;;;15.28;84.17
29461;BME280;16428;47.836;35.106;2023-04-05T05:45:31;100341.41;;;15.22;83.85
29461;BME280;16428;47.836;35.106;2023-04-05T05:47:59;100342.97;;;15.36;83.45
29461;BME280;16428;47.836;35.106;2023-04-05T05:50:27;100336.41;;;15.19;83.52
29461;BME280;16428;47.836;35.106;2023-04-05T05:52:59;100330.56;;;15.22;83.58
29461;BME280;16428;47.836;35.106;2023-04-05T05:55:28;100335.72;;;15.30;84.02
29461;BME280;16428;47.836;35.106;2023-04-05T05:57:56;100318.44;;;15.31;83.68
29461;BME280;16428;47.836;35.106;2023-04-05T06:00:23;100319.13;;;15.20;83.64
29461;BME280;16428;47.836;35.106;2023-04-05T06:03:10;100322.50;;;15.47;82.20
29461;BME280;16428;47.836;35.106;2023-04-05T06:05:38;100308.03;;;15.28;81.55
29461;BME280;16428;47.836;35.106;2023-04-05T06:08:06;100305.59;;;15.52;81.16
29461;BME280;16428;47.836;35.106;2023-04-05T06:10:35;100291.25;;;15.58;82.08
29461;BME280;16428;47.836;35.106;2023-04-05T06:13:04;100282.28;;;15.82;80.65
29461;BME280;16428;47.836;35.106;2023-04-05T06:15:32;100286.81;;;15.88;79.83
29461;BME280;16428;47.836;35.106;2023-04-05T06:18:00;100280.06;;;15.97;79.93
29461;BME280;16428;47.836;35.106;2023-04-05T06:20:28;100276.47;;;16.03;78.48
29461;BME280;16428;47.836;35.106;2023-04-05T06:23:00;100266.56;;;16.15;78.65
29461;BME280;16428;47.836;35.106;2023-04-05T06:25:30;100277.16;;;16.35;78.16
29461;BME280;16428;47.836;35.106;2023-04-05T06:27:58;100270.84;;;16.41;77.16
29461;BME280;16428;47.836;35.106;2023-04-05T06:30:27;100255.34;;;16.48;76.92
29461;BME280;16428;47.836;35.106;2023-04-05T06:32:55;100256.31;;;16.54;76.43
29461;BME280;16428;47.836;35.106;2023-04-05T06:35:23;100260.50;;;16.50;75.76
29461;BME280;16428;47.836;35.106;2023-04-05T06:52:23;100255.69;;;16.52;75.45
29461;BME280;16428;47.836;35.106;2023-04-05T06:54:52;100251.50;;;16.56;75.85
29461;BME280;16428;47.836;35.106;2023-04-05T06:57:20;100254.50;;;16.84;74.99
29461;BME280;16428;47.836;35.106;2023-04-05T06:59:50;100249.38;;;16.95;73.81
29461;BME280;16428;47.836;35.106;2023-04-05T07:02:21;100252.50;;;17.10;74.00
29461;BME280;16428;47.836;35.106;2023-04-05T07:04:48;100241.66;;;17.21;74.57
29461;BME280;16428;47.836;35.106;2023-04-05T09:55:42;100338.75;;;14.25;100.00
29461;BME280;16428;47.836;35.106;2023-04-05T09:58:17;100334.97;;;14.65;100.00
29461;BME280;16428;47.836;35.106;2023-04-05T10:00:50;100326.91;;;15.10;100.00
29461;BME280;16428;47.836;35.106;2023-04-05T10:03:31;100316.00;;;15.23;100.00
29461;BME280;16428;47.836;35.106;2023-04-05T10:05:59;100315.69;;;15.38;100.00
29461;BME280;16428;47.836;35.106;2023-04-05T10:08:31;100324.78;;;15.57;100.00
29461;BME280;16428;47.836;35.106;2023-04-05T10:11:00;100325.19;;;15.54;100.00
29461;BME280;16428;47.836;35.106;2023-04-05T10:13:33;100323.81;;;15.38;100.00
29461;BME280;16428;47.836;35.106;2023-04-05T10:16:05;100306.03;;;15.55;100.00
29461;BME280;16428;47.836;35.106;2023-04-05T10:18:42;100310.84;;;15.46;100.00
29461;BME280;16428;47.836;35.106;2023-04-05T10:21:21;100310.16;;;15.26;100.00
29461;BME280;16428;47.836;35.106;2023-04-05T10:24:07;100302.34;;;15.11;100.00
29461;BME280;16428;47.836;35.106;2023-04-05T10:26:50;100309.34;;;15.19;100.00
29461;BME280;16428;47.836;35.106;2023-04-05T10:29:28;100295.63;;;15.14;100.00
29461;BME280;16428;47.836;35.106;2023-04-05T10:32:15;100297.78;;;14.99;100.00
29461;BME280;16428;47.836;35.106;2023-04-05T10:34:59;100294.81;;;15.13;100.00
29461;BME280;16428;47.836;35.106;2023-04-05T10:40:07;100287.59;;;15.01;100.00
29461;BME280;16428;47.836;35.106;2023-04-05T10:42:42;100293.97;;;15.13;100.00
29461;BME280;16428;47.836;35.106;2023-04-05T10:45:16;100287.31;;;15.16;100.00
29461;BME280;16428;47.836;35.106;2023-04-05T10:47:55;100278.16;;;15.17;100.00
29461;BME280;16428;47.836;35.106;2023-04-05T10:50:24;100276.56;;;15.02;100.00
29461;BME280;16428;47.836;35.106;2023-04-05T10:52:52;100279.41;;;15.14;100.00
29461;BME280;16428;47.836;35.106;2023-04-05T10:55:20;100279.88;;;15.04;100.00
29461;BME280;16428;47.836;35.106;2023-04-05T10:57:48;100274.03;;;15.07;100.00
29461;BME280;16428;47.836;35.106;2023-04-05T11:00:17;100269.69;;;15.06;100.00
29461;BME280;16428;47.836;35.106;2023-04-05T11:02:53;100270.88;;;14.79;100.00
29461;BME280;16428;47.836;35.106;2023-04-05T11:05:34;100254.72;;;15.04;100.00
29461;BME280;16428;47.836;35.106;2023-04-05T11:08:06;100257.53;;;15.16;100.00
29461;BME280;16428;47.836;35.106;2023-04-05T11:10:37;100252.44;;;15.01;100.00
29461;BME280;16428;47.836;35.106;2023-04-05T11:13:07;100258.59;;;15.14;100.00
29461;BME280;16428;47.836;35.106;2023-04-05T11:15:35;100256.69;;;15.22;100.00
29461;BME280;16428;47.836;35.106;2023-04-05T11:18:20;100266.03;;;15.26;100.00
29461;BME280;16428;47.836;35.106;2023-04-05T11:20:51;100261.81;;;15.30;100.00
29461;BME280;16428;47.836;35.106;2023-04-05T11:23:23;100269.56;;;15.26;100.00
29461;BME280;16428;47.836;35.106;2023-04-05T11:25:53;100271.88;;;15.23;100.00
29461;BME280;16428;47.836;35.106;2023-04-05T11:28:34;100273.63;;;15.10;100.00
29461;BME280;16428;47.836;35.106;2023-04-05T11:31:15;100281.06;;;15.15;100.00
29461;BME280;16428;47.836;35.106;2023-04-05T11:33:56;100280.16;;;15.28;100.00
29461;BME280;16428;47.836;35.106;2023-04-05T11:36:38;100283.47;;;15.30;100.00
29461;BME280;16428;47.836;35.106;2023-04-05T11:42:11;100294.50;;;15.28;100.00
29461;BME280;16428;47.836;35.106;2023-04-05T11:44:45;100285.19;;;15.24;100.00
29461;BME280;16428;47.836;35.106;2023-04-05T11:47:18;100287.78;;;15.06;100.00
29461;BME280;16428;47.836;35.106;2023-04-05T11:49:49;100275.78;;;14.95;100.00
29461;BME280;16428;47.836;35.106;2023-04-05T11:52:19;100278.44;;;15.02;100.00
29461;BME280;16428;47.836;35.106;2023-04-05T11:54:47;100268.59;;;15.14;100.00
29461;BME280;16428;47.836;35.106;2023-04-05T11:57:19;100282.38;;;15.06;100.00
29461;BME280;16428;47.836;35.106;2023-04-05T11:59:52;100278.56;;;15.13;100.00
29461;BME280;16428;47.836;35.106;2023-04-05T12:02:20;100282.41;;;14.99;100.00
29461;BME280;16428;47.836;35.106;2023-04-05T12:04:56;100276.97;;;15.06;100.00
29461;BME280;16428;47.836;35.106;2023-04-05T12:07:28;100273.91;;;14.96;100.00
29461;BME280;16428;47.836;35.106;2023-04-05T12:10:04;100280.72;;;15.05;100.00
29461;BME280;16428;47.836;35.106;2023-04-05T12:12:38;100279.50;;;15.32;100.00
29461;BME280;16428;47.836;35.106;2023-04-05T12:15:08;100286.31;;;15.41;100.00
29461;BME280;16428;47.836;35.106;2023-04-05T12:17:41;100289.47;;;15.38;100.00
29461;BME280;16428;47.836;35.106;2023-04-05T12:20:12;100286.75;;;15.38;100.00
29461;BME280;16428;47.836;35.106;2023-04-05T12:22:43;100275.44;;;15.48;100.00
29461;BME280;16428;47.836;35.106;2023-04-05T12:25:12;100278.34;;;15.46;100.00
29461;BME280;16428;47.836;35.106;2023-04-05T12:27:40;100274.53;;;15.61;100.00
29461;BME280;16428;47.836;35.106;2023-04-05T12:30:17;100277.84;;;15.63;100.00
29461;BME280;16428;47.836;35.106;2023-04-05T12:32:52;100286.47;;;15.78;100.00
29461;BME280;16428;47.836;35.106;2023-04-05T12:35:22;100287.69;;;15.82;100.00
29461;BME280;16428;47.836;35.106;2023-04-05T12:37:51;100283.44;;;15.68;100.00
29461;BME280;16428;47.836;35.106;2023-04-05T12:40:20;100287.25;;;15.85;100.00
29461;BME280;16428;47.836;35.106;2023-04-05T12:42:48;100298.28;;;15.59;100.00
29461;BME280;16428;47.836;35.106;2023-04-05T12:45:17;100295.72;;;15.70;100.00
29461;BME280;16428;47.836;35.106;2023-04-05T12:47:50;100303.34;;;15.55;100.00
29461;BME280;16428;47.836;35.106;2023-04-05T12:50:25;100300.31;;;15.70;100.00
29461;BME280;16428;47.836;35.106;2023-04-05T12:55:26;100303.34;;;15.80;100.00
29461;BME280;16428;47.836;35.106;2023-04-05T12:57:57;100307.81;;;15.68;100.00
29461;BME280;16428;47.836;35.106;2023-04-05T13:00:27;100305.00;;;15.81;100.00
29461;BME280;16428;47.836;35.106;2023-04-05T13:02:57;100312.41;;;15.67;100.00
29461;BME280;16428;47.836;35.106;2023-04-05T13:05:28;100303.34;;;15.80;100.00
29461;BME280;16428;47.836;35.106;2023-04-05T13:07:57;100294.34;;;15.86;100.00
29461;BME280;16428;47.836;35.106;2023-04-05T13:10:25;100296.09;;;15.74;100.00
29461;BME280;16428;47.836;35.106;2023-04-05T13:12:54;100300.41;;;15.81;100.00
29461;BME280;16428;47.836;35.106;2023-04-05T13:15:22;100289.78;;;15.80;100.00
29461;BME280;16428;47.836;35.106;2023-04-05T13:17:49;100293.06;;;15.89;100.00
29461;BME280;16428;47.836;35.106;2023-04-05T13:20:21;100294.81;;;15.76;100.00
29461;BME280;16428;47.836;35.106;2023-04-05T13:22:49;100289.75;;;15.87;100.00
29461;BME280;16428;47.836;35.106;2023-04-05T13:25:17;100285.53;;;15.91;100.00
29461;BME280;16428;47.836;35.106;2023-04-05T13:27:47;100282.28;;;15.82;100.00
29461;BME280;16428;47.836;35.106;2023-04-05T13:30:15;100278.97;;;15.80;100.00
29461;BME280;16428;47.836;35.106;2023-04-05T13:32:49;100276.53;;;15.72;100.00
29461;BME280;16428;47.836;35.106;2023-04-05T13:35:16;100270.53;;;15.70;100.00
29461;BME280;16428;47.836;35.106;2023-04-05T13:37:44;100277.03;;;15.87;100.00
29461;BME280;16428;47.836;35.106;2023-04-05T13:40:12;100275.09;;;15.94;100.00
29461;BME280;16428;47.836;35.106;2023-04-05T13:42:40;100271.31;;;15.95;100.00
29461;BME280;16428;47.836;35.106;2023-04-05T13:45:08;100275.69;;;15.96;100.00
29461;BME280;16428;47.836;35.106;2023-04-05T13:47:36;100271.06;;;16.03;100.00
29461;BME280;16428;47.836;35.106;2023-04-05T13:50:04;100270.66;;;16.00;100.00
29461;BME280;16428;47.836;35.106;2023-04-05T13:52:32;100273.50;;;16.05;100.00
29461;BME280;16428;47.836;35.106;2023-04-05T13:55:00;100274.69;;;15.91;100.00
29461;BME280;16428;47.836;35.106;2023-04-05T13:57:30;100281.50;;;16.00;100.00
29461;BME280;16428;47.836;35.106;2023-04-05T13:59:58;100277.19;;;15.92;100.00
29461;BME280;16428;47.836;35.106;2023-04-05T14:02:42;100274.41;;;15.74;100.00
29461;BME280;16428;47.836;35.106;2023-04-05T14:05:11;100282.25;;;15.89;100.00
29461;BME280;16428;47.836;35.106;2023-04-05T14:07:39;100276.97;;;15.69;100.00
29461;BME280;16428;47.836;35.106;2023-04-05T14:10:07;100276.97;;;15.69;100.00
29461;BME280;16428;47.836;35.106;2023-04-05T14:12:37;100270.97;;;15.67;100.00
29461;BME280;16428;47.836;35.106;2023-04-05T14:15:05;100273.97;;;15.77;100.00
29461;BME280;16428;47.836;35.106;2023-04-05T14:17:35;100281.97;;;15.72;100.00
29461;BME280;16428;47.836;35.106;2023-04-05T14:20:03;100292.16;;;15.38;100.00
29461;BME280;16428;47.836;35.106;2023-04-05T14:22:31;100289.53;;;14.87;100.00
29461;BME280;16428;47.836;35.106;2023-04-05T14:24:59;100290.28;;;15.07;100.00
29461;BME280;16428;47.836;35.106;2023-04-05T14:27:27;100290.31;;;15.01;100.00
29461;BME280;16428;47.836;35.106;2023-04-05T14:29:55;100295.78;;;14.88;100.00
29461;BME280;16428;47.836;35.106;2023-04-05T14:32:24;100296.66;;;14.82;100.00
29461;BME280;16428;47.836;35.106;2023-04-05T14:34:52;100300.34;;;14.87;100.00
29461;BME280;16428;47.836;35.106;2023-04-05T14:37:19;100300.44;;;14.67;100.00
29461;BME280;16428;47.836;35.106;2023-04-05T14:39:47;100302.97;;;14.62;100.00
29461;BME280;16428;47.836;35.106;2023-04-05T14:42:15;100298.75;;;14.80;100.00
29461;BME280;16428;47.836;35.106;2023-04-05T14:44:43;100302.06;;;14.75;100.00
29461;BME280;16428;47.836;35.106;2023-04-05T14:47:11;100304.84;;;14.55;100.00
29461;BME280;16428;47.836;35.106;2023-04-05T14:49:38;100310.44;;;14.60;100.00
29461;BME280;16428;47.836;35.106;2023-04-05T14:52:06;100310.91;;;14.44;100.00
29461;BME280;16428;47.836;35.106;2023-04-05T14:54:34;100308.00;;;14.26;100.00
29461;BME280;16428;47.836;35.106;2023-04-05T14:57:04;100313.00;;;14.35;100.00
29461;BME280;16428;47.836;35.106;2023-04-05T14:59:32;100304.69;;;14.24;100.00
29461;BME280;16428;47.836;35.106;2023-04-05T15:02:00;100312.59;;;14.05;100.00
29461;BME280;16428;47.836;35.106;2023-04-05T15:04:29;100297.22;;;14.13;100.00
29461;BME280;16428;47.836;35.106;2023-04-05T15:06:57;100295.19;;;13.88;100.00
29461;BME280;16428;47.836;35.106;2023-04-05T15:09:24;100296.22;;;13.81;100.00
29461;BME280;16428;47.836;35.106;2023-04-05T15:11:52;100300.16;;;13.91;100.00
29461;BME280;16428;47.836;35.106;2023-04-05T15:14:21;100298.50;;;13.84;100.00
29461;BME280;16428;47.836;35.106;2023-04-05T15:16:58;100295.59;;;13.72;100.00
29461;BME280;16428;47.836;35.106;2023-04-05T15:19:26;100287.31;;;13.73;100.00
29461;BME280;16428;47.836;35.106;2023-04-05T15:21:54;100283.97;;;13.65;100.00
29461;BME280;16428;47.836;35.106;2023-04-05T15:24:21;100289.34;;;13.65;100.00
29461;BME280;16428;47.836;35.106;2023-04-05T15:26:49;100284.81;;;13.72;100.00
29461;BME280;16428;47.836;35.106;2023-04-05T15:29:18;100300.78;;;13.54;100.00
29461;BME280;16428;47.836;35.106;2023-04-05T15:31:46;100290.22;;;13.59;100.00
29461;BME280;16428;47.836;35.106;2023-04-05T15:34:14;100287.69;;;13.64;100.00
29461;BME280;16428;47.836;35.106;2023-04-05T15:36:41;100295.78;;;13.64;100.00
29461;BME280;16428;47.836;35.106;2023-04-05T15:39:09;100301.59;;;13.54;100.00
29461;BME280;16428;47.836;35.106;2023-04-05T15:41:36;100306.19;;;13.67;100.00
29461;BME280;16428;47.836;35.106;2023-04-05T15:44:07;100306.78;;;13.43;100.00
29461;BME280;16428;47.836;35.106;2023-04-05T15:46:35;100306.81;;;13.56;100.00
29461;BME280;16428;47.836;35.106;2023-04-05T15:49:03;100315.53;;;13.58;100.00
29461;BME280;16428;47.836;35.106;2023-04-05T15:51:35;100315.31;;;13.66;100.00
29461;BME280;16428;47.836;35.106;2023-04-05T15:54:02;100308.88;;;13.54;100.00
29461;BME280;16428;47.836;35.106;2023-04-05T15:56:30;100308.84;;;13.34;100.00
29461;BME280;16428;47.836;35.106;2023-04-05T15:58:58;100320.84;;;13.31;100.00
29461;BME280;16428;47.836;35.106;2023-04-05T16:01:26;100321.69;;;13.25;100.00